sensor_id;sensor_type;location;lat;lon;timestamp;pressure;altitude;pressure_sealevel;temperature;humidity
54248;BME280;40161;39.768;2.722;2023-03-05T00:01:23;101689.25;;;6.15;100.00
54248;BME280;40161;39.768;2.722;2023-03-05T00:03:50;101700.22;;;5.92;99.51
54248;BME280;40161;39.768;2.722;2023-03-05T00:06:19;101689.41;;;5.65;100.00
54248;BME280;40161;39.768;2.722;2023-03-05T00:08:46;101694.06;;;5.64;100.00
54248;BME280;40161;39.768;2.722;2023-03-05T00:11:12;101689.41;;;5.65;100.00
54248;BME280;40161;39.768;2.722;2023-03-05T00:13:38;101690.22;;;5.65;100.00
54248;BME280;40161;39.768;2.722;2023-03-05T00:16:06;101689.69;;;5.63;100.00
54248;BME280;40161;39.768;2.722;2023-03-05T00:18:32;101684.25;;;5.86;100.00
54248;BME280;40161;39.768;2.722;2023-03-05T00:20:57;101694.47;;;5.80;100.00
54248;BME280;40161;39.768;2.722;2023-03-05T00:23:23;101678.56;;;5.51;100.00
54248;BME280;40161;39.768;2.722;2023-03-05T00:25:48;101679.00;;;5.67;100.00
54248;BME280;40161;39.768;2.722;2023-03-05T00:28:14;101680.91;;;5.66;100.00
54248;BME280;40161;39.768;2.722;2023-03-05T00:30:40;101682.22;;;5.69;100.00
54248;BME280;40161;39.768;2.722;2023-03-05T00:33:06;101614.75;;;5.43;100.00
54248;BME280;40161;39.768;2.722;2023-03-05T00:35:41;101688.19;;;5.93;100.00
54248;BME280;40161;39.768;2.722;2023-03-05T00:38:07;101685.38;;;5.62;100.00
54248;BME280;40161;39.768;2.722;2023-03-05T00:40:36;101688.28;;;5.66;100.00
54248;BME280;40161;39.768;2.722;2023-03-05T00:43:02;101681.09;;;5.70;100.00
54248;BME280;40161;39.768;2.722;2023-03-05T00:45:28;101676.72;;;5.83;100.00
54248;BME280;40161;39.768;2.722;2023-03-05T00:47:53;101669.25;;;5.75;100.00
54248;BME280;40161;39.768;2.722;2023-03-05T00:50:19;101672.50;;;5.54;100.00
54248;BME280;40161;39.768;2.722;2023-03-05T00:52:44;101668.44;;;5.29;100.00
54248;BME280;40161;39.768;2.722;2023-03-05T00:55:10;101656.88;;;5.46;100.00
54248;BME280;40161;39.768;2.722;2023-03-05T00:57:35;101660.63;;;5.72;100.00
54248;BME280;40161;39.768;2.722;2023-03-05T01:00:01;101676.03;;;5.77;100.00
54248;BME280;40161;39.768;2.722;2023-03-05T01:02:27;101676.56;;;5.43;100.00
54248;BME280;40161;39.768;2.722;2023-03-05T01:04:52;101688.75;;;5.45;100.00
54248;BME280;40161;39.768;2.722;2023-03-05T01:07:18;101662.84;;;5.48;100.00
54248;BME280;40161;39.768;2.722;2023-03-05T01:09:43;101663.25;;;5.64;100.00
54248;BME280;40161;39.768;2.722;2023-03-05T01:12:09;101677.06;;;5.67;100.00
54248;BME280;40161;39.768;2.722;2023-03-05T01:14:34;101678.69;;;5.91;100.00
54248;BME280;40161;39.768;2.722;2023-03-05T01:17:01;101677.69;;;5.87;100.00
54248;BME280;40161;39.768;2.722;2023-03-05T01:19:27;101669.91;;;5.71;100.00
54248;BME280;40161;39.768;2.722;2023-03-05T01:21:52;101668.78;;;5.95;100.00
54248;BME280;40161;39.768;2.722;2023-03-05T01:24:19;101652.88;;;5.88;100.00
54248;BME280;40161;39.768;2.722;2023-03-05T01:26:45;101623.28;;;5.73;100.00
54248;BME280;40161;39.768;2.722;2023-03-05T01:29:11;101652.63;;;5.99;100.00
54248;BME280;40161;39.768;2.722;2023-03-05T01:31:36;101658.38;;;5.75;99.10
54248;BME280;40161;39.768;2.722;2023-03-05T01:34:02;101648.09;;;5.27;100.00
54248;BME280;40161;39.768;2.722;2023-03-05T01:36:27;101638.88;;;5.14;100.00
54248;BME280;40161;39.768;2.722;2023-03-05T01:38:53;101659.38;;;5.56;100.00
54248;BME280;40161;39.768;2.722;2023-03-05T01:41:19;101642.31;;;5.64;100.00
54248;BME280;40161;39.768;2.722;2023-03-05T01:43:45;101626.84;;;5.51;100.00
54248;BME280;40161;39.768;2.722;2023-03-05T01:46:28;101607.63;;;5.11;100.00
54248;BME280;40161;39.768;2.722;2023-03-05T01:51:45;101665.84;;;5.24;100.00
54248;BME280;40161;39.768;2.722;2023-03-05T01:54:13;101638.25;;;5.39;100.00
54248;BME280;40161;39.768;2.722;2023-03-05T01:56:40;101627.03;;;5.55;100.00
54248;BME280;40161;39.768;2.722;2023-03-05T01:59:07;101629.50;;;5.65;100.00
54248;BME280;40161;39.768;2.722;2023-03-05T02:01:38;101634.44;;;5.63;100.00
54248;BME280;40161;39.768;2.722;2023-03-05T02:04:07;101628.66;;;5.19;100.00
54248;BME280;40161;39.768;2.722;2023-03-05T02:06:34;101620.00;;;5.17;100.00
54248;BME280;40161;39.768;2.722;2023-03-05T02:08:59;101611.66;;;5.36;100.00
54248;BME280;40161;39.768;2.722;2023-03-05T02:11:25;101617.22;;;5.54;100.00
54248;BME280;40161;39.768;2.722;2023-03-05T02:13:51;101619.94;;;5.54;100.00
54248;BME280;40161;39.768;2.722;2023-03-05T02:16:17;101604.91;;;5.56;100.00
54248;BME280;40161;39.768;2.722;2023-03-05T02:18:42;101599.16;;;5.35;100.00
54248;BME280;40161;39.768;2.722;2023-03-05T02:21:09;101604.38;;;5.23;100.00
54248;BME280;40161;39.768;2.722;2023-03-05T02:23:37;101603.91;;;5.30;100.00
54248;BME280;40161;39.768;2.722;2023-03-05T02:26:07;101562.16;;;5.12;100.00
54248;BME280;40161;39.768;2.722;2023-03-05T02:28:44;101599.47;;;5.56;100.00
54248;BME280;40161;39.768;2.722;2023-03-05T02:31:14;101584.25;;;5.55;100.00
54248;BME280;40161;39.768;2.722;2023-03-05T02:33:40;101557.91;;;5.42;100.00
54248;BME280;40161;39.768;2.722;2023-03-05T02:36:06;101594.13;;;5.74;100.00
54248;BME280;40161;39.768;2.722;2023-03-05T02:38:33;101583.59;;;5.81;100.00
54248;BME280;40161;39.768;2.722;2023-03-05T02:40:59;101589.06;;;5.58;99.51
54248;BME280;40161;39.768;2.722;2023-03-05T02:43:24;101583.56;;;5.05;100.00
54248;BME280;40161;39.768;2.722;2023-03-05T02:45:50;101580.84;;;5.05;100.00
54248;BME280;40161;39.768;2.722;2023-03-05T02:48:16;101580.41;;;5.11;100.00
54248;BME280;40161;39.768;2.722;2023-03-05T02:50:42;101569.72;;;4.92;100.00
54248;BME280;40161;39.768;2.722;2023-03-05T02:53:08;101558.81;;;4.92;100.00
54248;BME280;40161;39.768;2.722;2023-03-05T02:55:34;101572.47;;;5.01;100.00
54248;BME280;40161;39.768;2.722;2023-03-05T02:58:00;101548.69;;;5.07;100.00
54248;BME280;40161;39.768;2.722;2023-03-05T03:00:25;101565.91;;;5.02;100.00
54248;BME280;40161;39.768;2.722;2023-03-05T03:02:51;101554.69;;;5.17;100.00
54248;BME280;40161;39.768;2.722;2023-03-05T03:05:17;101549.34;;;5.12;100.00
54248;BME280;40161;39.768;2.722;2023-03-05T03:07:42;101542.50;;;4.92;100.00
54248;BME280;40161;39.768;2.722;2023-03-05T03:10:08;101538.56;;;4.85;100.00
54248;BME280;40161;39.768;2.722;2023-03-05T03:12:38;101533.41;;;4.97;100.00
54248;BME280;40161;39.768;2.722;2023-03-05T03:15:05;101530.13;;;4.86;100.00
54248;BME280;40161;39.768;2.722;2023-03-05T03:17:33;101532.53;;;4.88;100.00
54248;BME280;40161;39.768;2.722;2023-03-05T03:19:59;101530.69;;;4.97;100.00
54248;BME280;40161;39.768;2.722;2023-03-05T03:22:25;101528.28;;;5.18;100.00
54248;BME280;40161;39.768;2.722;2023-03-05T03:24:51;101526.13;;;5.06;100.00
54248;BME280;40161;39.768;2.722;2023-03-05T03:27:16;101524.13;;;4.75;100.00
54248;BME280;40161;39.768;2.722;2023-03-05T03:29:42;101525.53;;;4.73;100.00
54248;BME280;40161;39.768;2.722;2023-03-05T03:32:07;101531.78;;;4.73;100.00
54248;BME280;40161;39.768;2.722;2023-03-05T03:34:33;101535.72;;;4.67;100.00
54248;BME280;40161;39.768;2.722;2023-03-05T03:36:58;101543.16;;;4.98;100.00
54248;BME280;40161;39.768;2.722;2023-03-05T03:39:24;101516.69;;;5.12;100.00
54248;BME280;40161;39.768;2.722;2023-03-05T03:41:51;101518.44;;;5.31;100.00
54248;BME280;40161;39.768;2.722;2023-03-05T03:44:17;101530.94;;;5.32;100.00
54248;BME280;40161;39.768;2.722;2023-03-05T03:46:44;101535.81;;;4.98;100.00
54248;BME280;40161;39.768;2.722;2023-03-05T03:49:21;101522.75;;;5.09;100.00
54248;BME280;40161;39.768;2.722;2023-03-05T03:51:47;101541.44;;;5.02;100.00
54248;BME280;40161;39.768;2.722;2023-03-05T03:54:14;101532.28;;;4.98;100.00
54248;BME280;40161;39.768;2.722;2023-03-05T03:56:41;101497.78;;;5.07;100.00
54248;BME280;40161;39.768;2.722;2023-03-05T03:59:06;101475.47;;;4.96;100.00
54248;BME280;40161;39.768;2.722;2023-03-05T04:01:32;101506.06;;;4.80;100.00
54248;BME280;40161;39.768;2.722;2023-03-05T04:03:58;101505.88;;;4.98;100.00
54248;BME280;40161;39.768;2.722;2023-03-05T04:06:23;101526.38;;;4.96;100.00
54248;BME280;40161;39.768;2.722;2023-03-05T04:08:49;101468.72;;;4.49;100.00
54248;BME280;40161;39.768;2.722;2023-03-05T04:11:15;101481.78;;;4.83;100.00
54248;BME280;40161;39.768;2.722;2023-03-05T04:13:44;101509.06;;;5.14;100.00
54248;BME280;40161;39.768;2.722;2023-03-05T04:16:09;101524.44;;;4.96;100.00
54248;BME280;40161;39.768;2.722;2023-03-05T04:18:35;101521.25;;;4.58;100.00
54248;BME280;40161;39.768;2.722;2023-03-05T04:21:01;101509.22;;;4.73;100.00
54248;BME280;40161;39.768;2.722;2023-03-05T04:23:26;101512.97;;;4.99;100.00
54248;BME280;40161;39.768;2.722;2023-03-05T04:25:52;101505.69;;;4.95;100.00
54248;BME280;40161;39.768;2.722;2023-03-05T04:28:17;101504.09;;;4.71;100.00
54248;BME280;40161;39.768;2.722;2023-03-05T04:30:43;101514.03;;;4.76;100.00
54248;BME280;40161;39.768;2.722;2023-03-05T04:33:09;101498.84;;;4.75;100.00
54248;BME280;40161;39.768;2.722;2023-03-05T04:35:34;101498.66;;;4.94;100.00
54248;BME280;40161;39.768;2.722;2023-03-05T04:38:00;101484.72;;;4.95;100.00
54248;BME280;40161;39.768;2.722;2023-03-05T04:40:25;101501.31;;;5.08;100.00
54248;BME280;40161;39.768;2.722;2023-03-05T04:42:51;101508.88;;;5.11;100.00
54248;BME280;40161;39.768;2.722;2023-03-05T04:45:16;101508.97;;;4.83;100.00
54248;BME280;40161;39.768;2.722;2023-03-05T04:47:42;101509.22;;;4.73;100.00
54248;BME280;40161;39.768;2.722;2023-03-05T04:50:08;101509.59;;;4.80;100.00
54248;BME280;40161;39.768;2.722;2023-03-05T04:52:40;101506.44;;;4.87;100.00
54248;BME280;40161;39.768;2.722;2023-03-05T04:55:06;101491.19;;;4.99;100.00
54248;BME280;40161;39.768;2.722;2023-03-05T04:57:32;101510.28;;;5.08;100.00
54248;BME280;40161;39.768;2.722;2023-03-05T04:59:58;101503.53;;;5.06;100.00
54248;BME280;40161;39.768;2.722;2023-03-05T05:02:23;101509.44;;;4.99;100.00
54248;BME280;40161;39.768;2.722;2023-03-05T05:04:53;101505.97;;;5.07;100.00
54248;BME280;40161;39.768;2.722;2023-03-05T05:07:18;101504.41;;;4.92;100.00
54248;BME280;40161;39.768;2.722;2023-03-05T05:09:44;101459.47;;;4.36;100.00
54248;BME280;40161;39.768;2.722;2023-03-05T05:12:09;101456.47;;;4.38;100.00
54248;BME280;40161;39.768;2.722;2023-03-05T05:14:35;101512.72;;;4.73;100.00
54248;BME280;40161;39.768;2.722;2023-03-05T05:17:01;101498.03;;;4.97;100.00
54248;BME280;40161;39.768;2.722;2023-03-05T05:19:38;101502.00;;;4.91;100.00
54248;BME280;40161;39.768;2.722;2023-03-05T05:22:03;101511.94;;;4.95;100.00
54248;BME280;40161;39.768;2.722;2023-03-05T05:24:29;101468.56;;;4.54;100.00
54248;BME280;40161;39.768;2.722;2023-03-05T05:26:55;101507.09;;;4.70;100.00
54248;BME280;40161;39.768;2.722;2023-03-05T05:29:21;101513.34;;;4.70;100.00
54248;BME280;40161;39.768;2.722;2023-03-05T05:31:46;101509.16;;;4.50;100.00
54248;BME280;40161;39.768;2.722;2023-03-05T05:34:12;101524.63;;;4.27;100.00
54248;BME280;40161;39.768;2.722;2023-03-05T05:36:38;101502.84;;;4.41;100.00
54248;BME280;40161;39.768;2.722;2023-03-05T05:39:04;101511.13;;;4.72;100.00
54248;BME280;40161;39.768;2.722;2023-03-05T05:41:29;101510.91;;;4.83;100.00
54248;BME280;40161;39.768;2.722;2023-03-05T05:43:55;101517.97;;;4.34;100.00
54248;BME280;40161;39.768;2.722;2023-03-05T05:46:21;101515.88;;;4.17;100.00
54248;BME280;40161;39.768;2.722;2023-03-05T05:48:47;101514.13;;;4.48;100.00
54248;BME280;40161;39.768;2.722;2023-03-05T05:51:19;101487.31;;;4.56;100.00
54248;BME280;40161;39.768;2.722;2023-03-05T05:53:45;101513.97;;;4.67;100.00
54248;BME280;40161;39.768;2.722;2023-03-05T05:56:11;101515.00;;;4.44;100.00
54248;BME280;40161;39.768;2.722;2023-03-05T05:58:39;101510.44;;;4.31;100.00
54248;BME280;40161;39.768;2.722;2023-03-05T06:01:31;101504.88;;;4.36;100.00
54248;BME280;40161;39.768;2.722;2023-03-05T06:03:59;101460.34;;;3.95;100.00
54248;BME280;40161;39.768;2.722;2023-03-05T06:06:25;101504.44;;;4.56;100.00
54248;BME280;40161;39.768;2.722;2023-03-05T06:08:52;101477.97;;;4.48;100.00
54248;BME280;40161;39.768;2.722;2023-03-05T06:11:18;101447.81;;;3.86;100.00
54248;BME280;40161;39.768;2.722;2023-03-05T06:13:44;101502.78;;;4.05;100.00
54248;BME280;40161;39.768;2.722;2023-03-05T06:16:13;101497.75;;;3.98;100.00
54248;BME280;40161;39.768;2.722;2023-03-05T06:18:39;101499.00;;;3.92;100.00
54248;BME280;40161;39.768;2.722;2023-03-05T06:21:07;101464.19;;;3.94;100.00
54248;BME280;40161;39.768;2.722;2023-03-05T06:23:33;101501.84;;;4.51;100.00
54248;BME280;40161;39.768;2.722;2023-03-05T06:26:01;101460.69;;;4.30;100.00
54248;BME280;40161;39.768;2.722;2023-03-05T06:28:28;101473.56;;;4.38;100.00
54248;BME280;40161;39.768;2.722;2023-03-05T06:31:06;101447.31;;;4.34;100.00
54248;BME280;40161;39.768;2.722;2023-03-05T06:33:32;101467.72;;;4.45;100.00
54248;BME280;40161;39.768;2.722;2023-03-05T06:35:58;101510.16;;;4.04;100.00
54248;BME280;40161;39.768;2.722;2023-03-05T06:38:24;101504.31;;;4.11;100.00
54248;BME280;40161;39.768;2.722;2023-03-05T06:40:50;101526.31;;;4.37;100.00
54248;BME280;40161;39.768;2.722;2023-03-05T06:43:16;101521.50;;;4.34;100.00
54248;BME280;40161;39.768;2.722;2023-03-05T06:45:42;101523.59;;;4.37;100.00
54248;BME280;40161;39.768;2.722;2023-03-05T06:48:08;101527.34;;;4.27;100.00
54248;BME280;40161;39.768;2.722;2023-03-05T06:50:34;101523.59;;;4.37;100.00
54248;BME280;40161;39.768;2.722;2023-03-05T06:53:01;101540.78;;;4.46;100.00
54248;BME280;40161;39.768;2.722;2023-03-05T06:55:26;101535.06;;;4.48;100.00
54248;BME280;40161;39.768;2.722;2023-03-05T06:57:52;101520.19;;;4.68;100.00
54248;BME280;40161;39.768;2.722;2023-03-05T07:00:18;101532.75;;;4.78;100.00
54248;BME280;40161;39.768;2.722;2023-03-05T07:02:43;101535.13;;;4.57;100.00
54248;BME280;40161;39.768;2.722;2023-03-05T07:05:09;101527.22;;;4.33;100.00
54248;BME280;40161;39.768;2.722;2023-03-05T07:07:35;101546.03;;;4.29;100.00
54248;BME280;40161;39.768;2.722;2023-03-05T07:10:00;101553.19;;;4.25;100.00
54248;BME280;40161;39.768;2.722;2023-03-05T07:12:26;101552.88;;;4.40;100.00
54248;BME280;40161;39.768;2.722;2023-03-05T07:14:51;101546.31;;;4.55;100.00
54248;BME280;40161;39.768;2.722;2023-03-05T07:17:17;101541.09;;;4.45;100.00
54248;BME280;40161;39.768;2.722;2023-03-05T07:19:43;101520.28;;;4.26;100.00
54248;BME280;40161;39.768;2.722;2023-03-05T07:22:09;101550.16;;;4.40;100.00
54248;BME280;40161;39.768;2.722;2023-03-05T07:24:35;101512.13;;;4.13;100.00
54248;BME280;40161;39.768;2.722;2023-03-05T07:27:01;101556.09;;;4.56;100.00
54248;BME280;40161;39.768;2.722;2023-03-05T07:29:26;101553.44;;;4.79;100.00
54248;BME280;40161;39.768;2.722;2023-03-05T07:31:53;101550.34;;;4.94;100.00
54248;BME280;40161;39.768;2.722;2023-03-05T07:34:18;101554.66;;;4.95;100.00
54248;BME280;40161;39.768;2.722;2023-03-05T07:36:44;101543.88;;;5.04;100.00
54248;BME280;40161;39.768;2.722;2023-03-05T07:39:11;101546.72;;;5.21;100.00
54248;BME280;40161;39.768;2.722;2023-03-05T07:41:37;101538.66;;;5.16;100.00
54248;BME280;40161;39.768;2.722;2023-03-05T07:44:03;101546.66;;;5.35;100.00
54248;BME280;40161;39.768;2.722;2023-03-05T07:46:31;101536.50;;;5.04;100.00
54248;BME280;40161;39.768;2.722;2023-03-05T07:48:57;101543.88;;;5.04;100.00
54248;BME280;40161;39.768;2.722;2023-03-05T07:51:25;101526.75;;;5.03;100.00
54248;BME280;40161;39.768;2.722;2023-03-05T07:53:52;101539.16;;;5.18;100.00
54248;BME280;40161;39.768;2.722;2023-03-05T07:56:28;101498.28;;;4.87;100.00
54248;BME280;40161;39.768;2.722;2023-03-05T07:59:00;101547.00;;;4.97;100.00
54248;BME280;40161;39.768;2.722;2023-03-05T08:01:26;101533.22;;;5.16;100.00
54248;BME280;40161;39.768;2.722;2023-03-05T08:03:51;101538.47;;;5.35;100.00
54248;BME280;40161;39.768;2.722;2023-03-05T08:06:17;101531.66;;;5.46;100.00
54248;BME280;40161;39.768;2.722;2023-03-05T08:08:42;101531.19;;;5.44;100.00
54248;BME280;40161;39.768;2.722;2023-03-05T08:11:11;101529.00;;;5.55;100.00
54248;BME280;40161;39.768;2.722;2023-03-05T08:13:37;101533.75;;;5.49;100.00
54248;BME280;40161;39.768;2.722;2023-03-05T08:16:05;101536.44;;;5.40;100.00
54248;BME280;40161;39.768;2.722;2023-03-05T08:18:30;101525.16;;;5.56;100.00
54248;BME280;40161;39.768;2.722;2023-03-05T08:20:56;101542.44;;;5.82;100.00
54248;BME280;40161;39.768;2.722;2023-03-05T08:23:22;101521.59;;;5.86;100.00
54248;BME280;40161;39.768;2.722;2023-03-05T08:25:48;101530.38;;;6.06;100.00
54248;BME280;40161;39.768;2.722;2023-03-05T08:28:13;101534.25;;;6.22;100.00
54248;BME280;40161;39.768;2.722;2023-03-05T08:30:40;101526.56;;;6.33;100.00
54248;BME280;40161;39.768;2.722;2023-03-05T08:33:06;101524.84;;;6.46;100.00
54248;BME280;40161;39.768;2.722;2023-03-05T08:35:32;101521.50;;;6.57;100.00
54248;BME280;40161;39.768;2.722;2023-03-05T08:37:57;101525.81;;;6.67;100.00
54248;BME280;40161;39.768;2.722;2023-03-05T08:40:23;101535.94;;;6.84;100.00
54248;BME280;40161;39.768;2.722;2023-03-05T08:42:48;101527.44;;;6.94;100.00
54248;BME280;40161;39.768;2.722;2023-03-05T08:45:16;101505.59;;;6.94;100.00
54248;BME280;40161;39.768;2.722;2023-03-05T08:47:41;101510.91;;;7.17;100.00
54248;BME280;40161;39.768;2.722;2023-03-05T08:50:07;101487.44;;;7.16;100.00
54248;BME280;40161;39.768;2.722;2023-03-05T08:52:33;101523.69;;;7.51;100.00
54248;BME280;40161;39.768;2.722;2023-03-05T08:54:59;101523.31;;;7.61;100.00
54248;BME280;40161;39.768;2.722;2023-03-05T08:57:25;101513.94;;;7.71;100.00
54248;BME280;40161;39.768;2.722;2023-03-05T08:59:50;101515.34;;;7.85;100.00
54248;BME280;40161;39.768;2.722;2023-03-05T09:02:16;101510.31;;;7.96;100.00
54248;BME280;40161;39.768;2.722;2023-03-05T09:04:41;101500.16;;;8.05;98.61
54248;BME280;40161;39.768;2.722;2023-03-05T09:07:07;101502.31;;;8.21;97.10
54248;BME280;40161;39.768;2.722;2023-03-05T09:09:33;101498.38;;;8.30;95.35
54248;BME280;40161;39.768;2.722;2023-03-05T09:11:59;101502.03;;;8.43;94.13
54248;BME280;40161;39.768;2.722;2023-03-05T09:14:25;101494.69;;;8.56;93.17
54248;BME280;40161;39.768;2.722;2023-03-05T09:16:53;101484.13;;;8.67;91.67
54248;BME280;40161;39.768;2.722;2023-03-05T09:19:18;101478.75;;;8.79;90.52
54248;BME280;40161;39.768;2.722;2023-03-05T09:21:44;101470.91;;;8.90;89.82
54248;BME280;40161;39.768;2.722;2023-03-05T09:24:10;101453.81;;;8.93;88.58
54248;BME280;40161;39.768;2.722;2023-03-05T09:26:36;101463.56;;;9.15;87.00
54248;BME280;40161;39.768;2.722;2023-03-05T09:29:02;101463.25;;;9.28;86.40
54248;BME280;40161;39.768;2.722;2023-03-05T09:31:28;101460.69;;;9.44;84.30
54248;BME280;40161;39.768;2.722;2023-03-05T09:33:54;101424.59;;;9.30;84.69
54248;BME280;40161;39.768;2.722;2023-03-05T09:36:22;101423.00;;;9.41;82.60
54248;BME280;40161;39.768;2.722;2023-03-05T09:38:48;101460.13;;;9.75;83.36
54248;BME280;40161;39.768;2.722;2023-03-05T09:41:34;101420.63;;;9.64;82.12
54248;BME280;40161;39.768;2.722;2023-03-05T09:52:02;101413.97;;;10.02;76.32
54248;BME280;40161;39.768;2.722;2023-03-05T09:54:53;101435.06;;;10.38;74.10
54248;BME280;40161;39.768;2.722;2023-03-05T09:57:39;101437.31;;;10.49;73.20
54248;BME280;40161;39.768;2.722;2023-03-05T10:00:15;101431.44;;;10.62;73.70
54248;BME280;40161;39.768;2.722;2023-03-05T10:02:51;101431.03;;;10.76;73.12
54248;BME280;40161;39.768;2.722;2023-03-05T10:05:26;101437.28;;;10.89;73.14
54248;BME280;40161;39.768;2.722;2023-03-05T10:07:57;101435.97;;;10.99;74.37
54248;BME280;40161;39.768;2.722;2023-03-05T10:10:40;101423.50;;;11.01;72.62
54248;BME280;40161;39.768;2.722;2023-03-05T10:13:27;101419.78;;;11.09;72.20
54248;BME280;40161;39.768;2.722;2023-03-05T10:16:04;101418.47;;;11.19;70.93
54248;BME280;40161;39.768;2.722;2023-03-05T10:21:04;101404.91;;;11.26;71.21
54248;BME280;40161;39.768;2.722;2023-03-05T10:23:54;101401.25;;;11.38;71.49
54248;BME280;40161;39.768;2.722;2023-03-05T10:47:48;101403.97;;;12.21;75.93
54248;BME280;40161;39.768;2.722;2023-03-05T10:50:19;101395.16;;;12.31;75.51
54248;BME280;40161;39.768;2.722;2023-03-05T10:52:51;101392.13;;;12.36;75.56
54248;BME280;40161;39.768;2.722;2023-03-05T10:55:21;101368.34;;;12.28;73.41
54248;BME280;40161;39.768;2.722;2023-03-05T10:57:47;101386.38;;;12.45;74.28
54248;BME280;40161;39.768;2.722;2023-03-05T11:03:00;101384.69;;;12.79;76.97
54248;BME280;40161;39.768;2.722;2023-03-05T11:08:25;101361.41;;;12.76;75.45
54248;BME280;40161;39.768;2.722;2023-03-05T11:13:30;101373.06;;;12.89;76.16
54248;BME280;40161;39.768;2.722;2023-03-05T11:16:01;101369.22;;;12.94;76.82
54248;BME280;40161;39.768;2.722;2023-03-05T11:18:28;101365.38;;;12.98;76.36
54248;BME280;40161;39.768;2.722;2023-03-05T11:21:21;101371.50;;;13.11;76.39
54248;BME280;40161;39.768;2.722;2023-03-05T11:26:33;101360.75;;;13.25;73.51
54248;BME280;40161;39.768;2.722;2023-03-05T11:29:00;101357.53;;;13.46;72.53
54248;BME280;40161;39.768;2.722;2023-03-05T11:31:31;101357.84;;;13.94;70.17
54248;BME280;40161;39.768;2.722;2023-03-05T11:34:26;101361.25;;;13.84;70.88
54248;BME280;40161;39.768;2.722;2023-03-05T11:39:22;101294.56;;;13.52;73.13
54248;BME280;40161;39.768;2.722;2023-03-05T11:41:59;101334.28;;;14.00;73.42
54248;BME280;40161;39.768;2.722;2023-03-05T11:49:47;101332.47;;;14.15;73.46
54248;BME280;40161;39.768;2.722;2023-03-05T11:52:20;101323.81;;;14.17;72.60
54248;BME280;40161;39.768;2.722;2023-03-05T11:55:17;101318.97;;;14.40;71.12
54248;BME280;40161;39.768;2.722;2023-03-05T12:00:48;101272.31;;;13.94;71.00
54248;BME280;40161;39.768;2.722;2023-03-05T12:03:16;101269.47;;;13.87;71.42
54248;BME280;40161;39.768;2.722;2023-03-05T12:06:28;101307.22;;;14.13;70.09
54248;BME280;40161;39.768;2.722;2023-03-05T12:09:01;101239.03;;;13.80;69.59
54248;BME280;40161;39.768;2.722;2023-03-05T12:11:31;101300.69;;;14.29;70.84
54248;BME280;40161;39.768;2.722;2023-03-05T12:14:03;101308.72;;;14.41;68.71
54248;BME280;40161;39.768;2.722;2023-03-05T12:21:43;101290.72;;;14.54;70.75
54248;BME280;40161;39.768;2.722;2023-03-05T12:29:41;101278.47;;;14.52;68.69
54248;BME280;40161;39.768;2.722;2023-03-05T12:53:12;101259.00;;;14.78;70.26
54248;BME280;40161;39.768;2.722;2023-03-05T13:01:35;101241.56;;;14.70;71.15
54248;BME280;40161;39.768;2.722;2023-03-05T13:04:06;101202.31;;;14.51;72.14
54248;BME280;40161;39.768;2.722;2023-03-05T13:06:37;101236.84;;;14.71;71.91
54248;BME280;40161;39.768;2.722;2023-03-05T13:11:36;101225.78;;;14.71;72.20
54248;BME280;40161;39.768;2.722;2023-03-05T13:14:03;101221.81;;;14.68;71.29
54248;BME280;40161;39.768;2.722;2023-03-05T13:16:36;101217.84;;;14.66;71.82
54248;BME280;40161;39.768;2.722;2023-03-05T13:19:03;101204.84;;;14.66;69.36
54248;BME280;40161;39.768;2.722;2023-03-05T13:21:31;101206.41;;;14.67;70.76
54248;BME280;40161;39.768;2.722;2023-03-05T13:23:59;101210.75;;;14.68;71.02
54248;BME280;40161;39.768;2.722;2023-03-05T13:26:39;101213.50;;;14.65;67.91
54248;BME280;40161;39.768;2.722;2023-03-05T13:29:20;101209.63;;;14.73;70.01
54248;BME280;40161;39.768;2.722;2023-03-05T13:32:01;101179.53;;;14.61;67.82
54248;BME280;40161;39.768;2.722;2023-03-05T13:34:35;101195.06;;;14.80;68.72
54248;BME280;40161;39.768;2.722;2023-03-05T13:37:15;101191.47;;;14.76;67.84
54248;BME280;40161;39.768;2.722;2023-03-05T13:39:47;101147.94;;;14.58;69.22
54248;BME280;40161;39.768;2.722;2023-03-05T13:42:16;101178.97;;;14.92;67.02
54248;BME280;40161;39.768;2.722;2023-03-05T13:44:42;101158.03;;;14.88;66.40
54248;BME280;40161;39.768;2.722;2023-03-05T13:47:15;101170.63;;;14.85;66.63
54248;BME280;40161;39.768;2.722;2023-03-05T13:49:41;101122.69;;;14.56;66.23
54248;BME280;40161;39.768;2.722;2023-03-05T13:52:08;101160.69;;;14.74;66.78
54248;BME280;40161;39.768;2.722;2023-03-05T13:54:34;101136.97;;;14.69;67.05
54248;BME280;40161;39.768;2.722;2023-03-05T13:57:06;101119.13;;;14.52;66.86
54248;BME280;40161;39.768;2.722;2023-03-05T13:59:34;101132.31;;;14.77;66.01
54248;BME280;40161;39.768;2.722;2023-03-05T14:02:10;101139.81;;;14.80;65.83
54248;BME280;40161;39.768;2.722;2023-03-05T14:04:41;101111.72;;;14.67;66.96
54248;BME280;40161;39.768;2.722;2023-03-05T14:09:52;101137.88;;;14.84;66.62
54248;BME280;40161;39.768;2.722;2023-03-05T14:12:33;101130.34;;;14.81;64.05
54248;BME280;40161;39.768;2.722;2023-03-05T14:15:00;101104.94;;;14.61;64.50
54248;BME280;40161;39.768;2.722;2023-03-05T14:22:39;101125.22;;;14.83;64.74
54248;BME280;40161;39.768;2.722;2023-03-05T14:25:23;101130.00;;;14.93;65.03
54248;BME280;40161;39.768;2.722;2023-03-05T14:27:50;101129.59;;;14.84;66.40
54248;BME280;40161;39.768;2.722;2023-03-05T14:30:19;101128.78;;;14.83;65.89
54248;BME280;40161;39.768;2.722;2023-03-05T14:32:46;101113.75;;;14.77;65.11
54248;BME280;40161;39.768;2.722;2023-03-05T14:35:20;101116.19;;;14.89;65.65
54248;BME280;40161;39.768;2.722;2023-03-05T14:37:49;101102.31;;;14.79;65.39
54248;BME280;40161;39.768;2.722;2023-03-05T14:40:21;101102.31;;;14.79;66.62